Time,TemperatureF,DewpointF,PressureIn,WindDirection,WindDirectionDegrees,WindSpeedMPH,WindSpeedGustMPH,Humidity,HourlyPrecipIn,Conditions,Clouds,dailyrainin,SoftwareType,DateUTC
2013-01-22 00:00:00,26.5,19.3,29.83,SSW,198,1.0,1.0,74,0.00,,,0.00,Wunderground v.1.15,2013-01-22 05:00:00,
2013-01-22 00:05:00,26.9,19.7,29.83,South,185,2.0,2.0,74,0.00,,,0.00,Wunderground v.1.15,2013-01-22 05:05:00,
2013-01-22 00:10:00,27.2,19.4,29.82,SSE,150,2.0,4.0,72,0.00,,,0.00,Wunderground v.1.15,2013-01-22 05:10:00,
2013-01-22 00:20:00,27.6,17.4,29.83,WNW,291,4.0,4.0,65,0.00,,,0.00,Wunderground v.1.15,2013-01-22 05:20:00,
2013-01-22 00:30:00,27.5,16.2,29.83,South,173,3.0,6.0,62,0.00,,,0.00,Wunderground v.1.15,2013-01-22 05:30:00,
2013-01-22 00:40:00,28.0,15.1,29.82,South,187,4.0,4.0,58,0.00,,,0.00,Wunderground v.1.15,2013-01-22 05:40:00,
2013-01-22 00:50:00,27.1,13.9,29.83,South,173,2.0,2.0,57,0.00,,,0.00,Wunderground v.1.15,2013-01-22 05:50:00,
2013-01-22 01:00:00,27.1,13.5,29.83,ENE,77,3.0,3.0,56,0.00,,,0.00,Wunderground v.1.15,2013-01-22 06:00:00,
2013-01-22 01:10:00,26.4,12.4,29.83,South,176,2.0,2.0,55,0.00,,,0.00,Wunderground v.1.15,2013-01-22 06:10:00,
2013-01-22 01:20:00,26.6,12.2,29.83,SE,124,3.0,6.0,54,0.00,,,0.00,Wunderground v.1.15,2013-01-22 06:20:00,
2013-01-22 01:30:00,26.1,12.1,29.84,SSW,198,2.0,2.0,55,0.00,,,0.00,Wunderground v.1.15,2013-01-22 06:30:00,
2013-01-22 01:40:00,26.0,12.4,29.84,SW,228,3.0,4.0,56,0.00,,,0.00,Wunderground v.1.15,2013-01-22 06:40:00,
2013-01-22 01:50:00,25.7,12.2,29.84,SSW,202,3.0,7.0,56,0.00,,,0.00,Wunderground v.1.15,2013-01-22 06:50:00,
2013-01-22 02:00:00,25.7,11.3,29.85,East,92,2.0,2.0,54,0.00,,,0.00,Wunderground v.1.15,2013-01-22 07:00:00,
2013-01-22 02:10:00,25.4,11.9,29.85,WSW,252,2.0,2.0,56,0.00,,,0.00,Wunderground v.1.15,2013-01-22 07:10:00,
2013-01-22 02:20:00,24.8,11.3,29.85,SE,146,2.0,2.0,56,0.00,,,0.00,Wunderground v.1.15,2013-01-22 07:20:00,
2013-01-22 02:30:00,25.1,11.6,29.86,SSE,156,1.0,2.0,56,0.00,,,0.00,Wunderground v.1.15,2013-01-22 07:30:00,
2013-01-22 02:40:00,26.4,11.6,29.86,NW,318,6.0,7.0,53,0.00,,,0.00,Wunderground v.1.15,2013-01-22 07:40:00,
2013-01-22 02:50:00,26.3,11.0,29.86,SSW,207,6.0,8.0,52,0.00,,,0.00,Wunderground v.1.15,2013-01-22 07:50:00,
2013-01-22 03:00:00,25.7,10.0,29.86,West,278,5.0,5.0,51,0.00,,,0.00,Wunderground v.1.15,2013-01-22 08:00:00,
2013-01-22 03:10:00,25.0,9.0,29.86,SSW,207,4.0,4.0,50,0.00,,,0.00,Wunderground v.1.15,2013-01-22 08:10:00,
2013-01-22 03:20:00,24.4,8.8,29.86,SSE,149,2.0,5.0,51,0.00,,,0.00,Wunderground v.1.15,2013-01-22 08:20:00,
2013-01-22 03:30:00,24.6,10.7,29.86,South,180,3.0,13.0,55,0.00,,,-99.99,WeatherLink 6.0.2,2013-01-22 08:30:00,
2013-01-22 03:40:00,24.9,10.6,29.87,South,179,4.0,4.0,54,0.00,,,0.00,Wunderground v.1.15,2013-01-22 08:40:00,
2013-01-22 03:50:00,24.6,9.5,29.86,SSE,168,3.0,3.0,52,0.00,,,0.00,Wunderground v.1.15,2013-01-22 08:50:00,
2013-01-22 04:00:00,24.2,9.9,29.87,West,269,2.0,2.0,54,0.00,,,0.00,Wunderground v.1.15,2013-01-22 09:00:00,
2013-01-22 04:10:00,24.4,10.5,29.87,West,267,4.0,4.0,55,0.00,,,0.00,Wunderground v.1.15,2013-01-22 09:10:00,
2013-01-22 04:20:00,24.0,10.6,29.88,North,1,3.0,3.0,56,0.00,,,0.00,Wunderground v.1.15,2013-01-22 09:20:00,
2013-01-22 04:30:00,24.3,10.0,29.88,West,273,4.0,6.0,54,0.00,,,0.00,Wunderground v.1.15,2013-01-22 09:30:00,
2013-01-22 04:40:00,24.4,10.1,29.88,SSE,155,4.0,4.0,54,0.00,,,0.00,Wunderground v.1.15,2013-01-22 09:40:00,
2013-01-22 04:50:00,24.3,10.4,29.89,SSW,208,4.0,5.0,55,0.00,,,0.00,Wunderground v.1.15,2013-01-22 09:50:00,
2013-01-22 05:00:00,24.5,11.0,29.89,SSW,192,6.0,7.0,56,0.00,,,0.00,Wunderground v.1.15,2013-01-22 10:00:00,
2013-01-22 05:10:00,23.9,10.9,29.90,South,191,7.0,7.0,57,0.00,,,0.00,Wunderground v.1.15,2013-01-22 10:10:00,
2013-01-22 05:20:00,23.8,11.5,29.91,SW,222,6.0,7.0,59,0.00,,,0.00,Wunderground v.1.15,2013-01-22 10:20:00,
2013-01-22 05:30:00,23.7,11.4,29.91,SSW,209,6.0,6.0,59,0.00,,,0.00,Wunderground v.1.15,2013-01-22 10:30:00,
2013-01-22 05:40:00,23.1,10.5,29.92,ESE,119,5.0,5.0,58,0.00,,,0.00,Wunderground v.1.15,2013-01-22 10:40:00,
2013-01-22 05:50:00,22.0,10.2,29.93,SSE,157,2.0,6.0,60,0.00,,,0.00,Wunderground v.1.15,2013-01-22 10:50:00,
2013-01-22 06:00:00,23.1,11.3,29.94,South,186,4.0,11.0,60,0.00,,,0.00,Wunderground v.1.15,2013-01-22 11:00:00,
2013-01-22 06:10:00,22.5,10.3,29.95,ENE,78,3.0,6.0,59,0.00,,,0.00,Wunderground v.1.15,2013-01-22 11:10:00,
2013-01-22 06:20:00,21.1,8.2,29.94,NW,320,3.0,3.0,57,0.00,,,0.00,Wunderground v.1.15,2013-01-22 11:20:00,
2013-01-22 06:30:00,20.9,9.2,29.94,ENE,76,1.0,1.0,60,0.00,,,0.00,Wunderground v.1.15,2013-01-22 11:30:00,
2013-01-22 06:40:00,20.7,8.6,29.95,ENE,58,3.0,3.0,59,0.00,,,0.00,Wunderground v.1.15,2013-01-22 11:40:00,
2013-01-22 06:50:00,20.5,7.7,29.95,ENE,75,3.0,3.0,57,0.00,,,0.00,Wunderground v.1.15,2013-01-22 11:50:00,
2013-01-22 07:00:00,20.6,7.4,29.96,East,99,2.0,2.0,56,0.00,,,0.00,Wunderground v.1.15,2013-01-22 12:00:00,
2013-01-22 07:10:00,20.1,7.7,29.96,ENE,65,2.0,2.0,58,0.00,,,0.00,Wunderground v.1.15,2013-01-22 12:10:00,
2013-01-22 07:20:00,20.0,8.0,29.97,SE,139,1.0,1.0,59,0.00,,,0.00,Wunderground v.1.15,2013-01-22 12:20:00,
2013-01-22 07:30:00,20.0,8.0,29.97,ENE,63,1.0,2.0,59,0.00,,,0.00,Wunderground v.1.15,2013-01-22 12:30:00,
2013-01-22 07:40:00,19.8,7.8,29.98,East,97,2.0,2.0,59,0.00,,,0.00,Wunderground v.1.15,2013-01-22 12:40:00,
2013-01-22 07:50:00,20.8,8.7,29.98,SW,216,2.0,2.0,59,0.00,,,0.00,Wunderground v.1.15,2013-01-22 12:50:00,
2013-01-22 08:00:00,20.4,5.5,29.99,SSE,162,2.0,2.0,52,0.00,,,0.00,Wunderground v.1.15,2013-01-22 13:00:00,
2013-01-22 08:10:00,21.0,4.4,29.99,South,170,6.0,10.0,48,0.00,,,0.00,Wunderground v.1.15,2013-01-22 13:10:00,
2013-01-22 08:20:00,22.3,5.6,30.00,SSE,152,5.0,5.0,48,0.00,,,0.00,Wunderground v.1.15,2013-01-22 13:20:00,
2013-01-22 08:30:00,21.3,3.7,30.01,SSW,204,7.0,7.0,46,0.00,,,0.00,Wunderground v.1.15,2013-01-22 13:30:00,
2013-01-22 08:40:00,21.2,3.6,30.00,South,176,5.0,6.0,46,0.00,,,0.00,Wunderground v.1.15,2013-01-22 13:40:00,
2013-01-22 08:50:00,21.6,3.5,30.01,SE,127,5.0,5.0,45,0.00,,,0.00,Wunderground v.1.15,2013-01-22 13:50:00,
2013-01-22 09:00:00,22.2,3.6,30.01,SW,232,5.0,12.0,44,0.00,,,0.00,Wunderground v.1.15,2013-01-22 14:00:00,
2013-01-22 09:10:00,22.6,2.9,30.01,South,182,5.0,9.0,42,0.00,,,0.00,Wunderground v.1.15,2013-01-22 14:10:00,
2013-01-22 09:20:00,22.2,3.1,30.02,South,180,7.0,7.0,43,0.00,,,0.00,Wunderground v.1.15,2013-01-22 14:20:00,
2013-01-22 09:30:00,22.0,2.9,30.02,SSW,195,7.0,7.0,43,0.00,,,0.00,Wunderground v.1.15,2013-01-22 14:30:00,
2013-01-22 09:40:00,22.8,4.1,30.02,SSE,167,6.0,8.0,44,0.00,,,0.00,Wunderground v.1.15,2013-01-22 14:40:00,
2013-01-22 09:50:00,21.5,1.9,30.02,SE,130,6.0,6.0,42,0.00,,,0.00,Wunderground v.1.15,2013-01-22 14:50:00,
2013-01-22 10:00:00,22.7,3.5,30.02,SSW,192,6.0,10.0,43,0.00,,,0.00,Wunderground v.1.15,2013-01-22 15:00:00,
2013-01-22 10:10:00,22.2,2.6,30.02,SW,224,5.0,5.0,42,0.00,,,0.00,Wunderground v.1.15,2013-01-22 15:10:00,
2013-01-22 10:20:00,23.1,3.9,30.02,NW,315,5.0,5.0,43,0.00,,,0.00,Wunderground v.1.15,2013-01-22 15:20:00,
2013-01-22 10:30:00,22.9,3.7,30.02,WNW,294,6.0,6.0,43,0.00,,,0.00,Wunderground v.1.15,2013-01-22 15:30:00,
2013-01-22 10:40:00,23.5,4.2,30.02,SSW,208,6.0,12.0,43,0.00,,,0.00,Wunderground v.1.15,2013-01-22 15:40:00,
2013-01-22 10:50:00,24.0,4.7,30.02,South,185,7.0,11.0,43,0.00,,,0.00,Wunderground v.1.15,2013-01-22 15:50:00,
2013-01-22 11:00:00,23.5,3.2,30.02,South,175,10.0,10.0,41,0.00,,,0.00,Wunderground v.1.15,2013-01-22 16:00:00,
2013-01-22 11:10:00,23.4,3.1,30.02,SSW,211,7.0,9.0,41,0.00,,,0.00,Wunderground v.1.15,2013-01-22 16:10:00,
2013-01-22 11:20:00,24.1,4.8,30.02,SSE,165,9.0,9.0,43,0.00,,,0.00,Wunderground v.1.15,2013-01-22 16:20:00,
2013-01-22 11:30:00,24.3,6.0,30.02,SSW,207,8.0,8.0,45,0.00,,,0.00,Wunderground v.1.15,2013-01-22 16:30:00,
2013-01-22 11:40:00,23.5,5.2,30.01,SE,139,8.0,8.0,45,0.00,,,0.00,Wunderground v.1.15,2013-01-22 16:40:00,
2013-01-22 11:50:00,24.3,6.5,30.01,South,184,7.0,7.0,46,0.00,,,0.00,Wunderground v.1.15,2013-01-22 16:50:00,
2013-01-22 12:00:00,23.5,4.2,30.01,SSW,207,9.0,9.0,43,0.00,,,0.00,Wunderground v.1.15,2013-01-22 17:00:00,
2013-01-22 12:10:00,24.8,4.9,30.00,South,186,9.0,12.0,42,0.00,,,0.00,Wunderground v.1.15,2013-01-22 17:10:00,
2013-01-22 12:20:00,24.5,5.2,30.00,South,184,8.0,8.0,43,0.00,,,0.00,Wunderground v.1.15,2013-01-22 17:20:00,
2013-01-22 12:30:00,22.2,5.9,30.00,West,280,5.0,7.0,49,0.00,,,0.00,Wunderground v.1.15,2013-01-22 17:30:00,
2013-01-22 12:40:00,21.3,6.4,30.00,ESE,123,4.0,4.0,52,0.00,,,0.00,Wunderground v.1.15,2013-01-22 17:40:00,
2013-01-22 12:50:00,21.4,4.7,30.00,SSW,198,4.0,7.0,48,0.00,,,0.00,Wunderground v.1.15,2013-01-22 17:50:00,
2013-01-22 13:00:00,22.8,5.6,29.99,ENE,74,4.0,4.0,47,0.00,,,0.00,Wunderground v.1.15,2013-01-22 18:00:00,
2013-01-22 13:10:00,22.7,3.0,29.99,NE,39,4.0,4.0,42,0.00,,,0.00,Wunderground v.1.15,2013-01-22 18:10:00,
2013-01-22 13:20:00,21.6,0.4,29.99,SSW,198,5.0,5.0,39,0.00,,,0.00,Wunderground v.1.15,2013-01-22 18:20:00,
2013-01-22 13:30:00,21.9,-0.4,30.00,SW,225,3.0,3.0,37,0.00,,,0.00,Wunderground v.1.15,2013-01-22 18:30:00,
2013-01-22 13:40:00,22.3,1.6,30.00,SSE,151,6.0,6.0,40,0.00,,,0.00,Wunderground v.1.15,2013-01-22 18:40:00,
2013-01-22 13:50:00,21.7,0.5,30.00,South,182,3.0,9.0,39,0.00,,,0.00,Wunderground v.1.15,2013-01-22 18:50:00,
2013-01-22 14:00:00,22.6,-0.4,30.00,South,180,5.0,19.0,36,0.00,,,-99.99,WeatherLink 6.0.2,2013-01-22 19:00:00,
2013-01-22 14:10:00,23.8,4.5,30.00,SW,221,4.0,4.0,43,0.00,,,0.00,Wunderground v.1.15,2013-01-22 19:10:00,
2013-01-22 14:20:00,22.2,-0.7,30.00,ESE,118,7.0,7.0,36,0.00,,,0.00,Wunderground v.1.15,2013-01-22 19:20:00,
2013-01-22 14:30:00,23.8,0.7,30.01,WSW,244,8.0,8.0,36,0.00,,,0.00,Wunderground v.1.15,2013-01-22 19:30:00,
2013-01-22 14:40:00,24.0,-0.4,30.01,West,259,8.0,8.0,34,0.00,,,0.00,Wunderground v.1.15,2013-01-22 19:40:00,
2013-01-22 14:50:00,23.3,0.2,30.01,West,260,4.0,9.0,36,0.00,,,0.00,Wunderground v.1.15,2013-01-22 19:50:00,
2013-01-22 15:00:00,23.5,1.0,30.02,SSW,192,4.0,4.0,37,0.00,,,0.00,Wunderground v.1.15,2013-01-22 20:00:00,
2013-01-22 15:10:00,23.2,-1.1,30.02,East,79,5.0,6.0,34,0.00,,,0.00,Wunderground v.1.15,2013-01-22 20:10:00,
2013-01-22 15:20:00,22.2,-0.2,30.02,SW,215,5.0,5.0,37,0.00,,,0.00,Wunderground v.1.15,2013-01-22 20:20:00,
2013-01-22 15:30:00,22.5,-1.7,30.02,SSE,161,5.0,5.0,34,0.00,,,0.00,Wunderground v.1.15,2013-01-22 20:30:00,
2013-01-22 15:40:00,22.4,-1.2,30.03,West,276,6.0,6.0,35,0.00,,,0.00,Wunderground v.1.15,2013-01-22 20:40:00,
2013-01-22 15:50:00,22.2,-2.6,30.03,SW,216,4.0,5.0,33,0.00,,,0.00,Wunderground v.1.15,2013-01-22 20:50:00,
2013-01-22 16:00:00,22.5,-1.1,30.05,NW,313,5.0,5.0,35,0.00,,,0.00,Wunderground v.1.15,2013-01-22 21:00:00,
2013-01-22 16:10:00,21.5,-2.0,30.04,SSE,159,5.0,6.0,35,0.00,,,0.00,Wunderground v.1.15,2013-01-22 21:10:00,
2013-01-22 16:20:00,21.4,-0.3,30.05,South,175,7.0,7.0,38,0.00,,,0.00,Wunderground v.1.15,2013-01-22 21:20:00,
2013-01-22 16:30:00,21.5,-0.8,30.05,South,188,5.0,5.0,37,0.00,,,0.00,Wunderground v.1.15,2013-01-22 21:30:00,
2013-01-22 16:35:00,22.2,0.4,30.06,SSW,200,5.0,6.0,38,0.00,,,0.00,Wunderground v.1.15,2013-01-22 21:35:00,
2013-01-22 16:40:00,21.5,-1.4,30.06,East,84,4.0,4.0,36,0.00,,,0.00,Wunderground v.1.15,2013-01-22 21:40:00,
2013-01-22 16:50:00,21.0,-1.2,30.06,South,187,5.0,5.0,37,0.00,,,0.00,Wunderground v.1.15,2013-01-22 21:50:00,
2013-01-22 17:00:00,21.1,-1.2,30.07,SW,230,5.0,14.0,37,0.00,,,0.00,Wunderground v.1.15,2013-01-22 22:00:00,
2013-01-22 17:10:00,20.8,0.2,30.08,South,180,8.0,8.0,40,0.00,,,0.00,Wunderground v.1.15,2013-01-22 22:10:00,
2013-01-22 17:20:00,21.2,0.1,30.08,South,182,5.0,5.0,39,0.00,,,0.00,Wunderground v.1.15,2013-01-22 22:20:00,
2013-01-22 17:30:00,20.8,0.8,30.09,SW,223,6.0,6.0,41,0.00,,,0.00,Wunderground v.1.15,2013-01-22 22:30:00,
2013-01-22 17:40:00,20.7,-2.1,30.10,SSW,199,7.0,15.0,36,0.00,,,0.00,Wunderground v.1.15,2013-01-22 22:40:00,
2013-01-22 17:50:00,20.0,-3.9,30.10,WSW,241,8.0,9.0,34,0.00,,,0.00,Wunderground v.1.15,2013-01-22 22:50:00,
2013-01-22 18:00:00,20.4,-3.6,30.11,WSW,240,6.0,6.0,34,0.00,,,0.00,Wunderground v.1.15,2013-01-22 23:00:00,
2013-01-22 18:10:00,20.5,-4.1,30.11,North,351,6.0,6.0,33,0.00,,,0.00,Wunderground v.1.15,2013-01-22 23:10:00,
2013-01-22 18:20:00,19.4,-5.7,30.11,South,182,2.0,2.0,32,0.00,,,0.00,Wunderground v.1.15,2013-01-22 23:20:00,
2013-01-22 18:30:00,18.5,-4.7,30.12,South,187,3.0,3.0,35,0.00,,,0.00,Wunderground v.1.15,2013-01-22 23:30:00,
2013-01-22 18:40:00,18.2,-5.5,30.12,SSE,167,4.0,4.0,34,0.00,,,0.00,Wunderground v.1.15,2013-01-22 23:40:00,
2013-01-22 18:50:00,19.2,-2.9,30.12,WNW,288,4.0,5.0,37,0.00,,,0.00,Wunderground v.1.15,2013-01-22 23:50:00,
2013-01-22 19:00:00,18.8,-2.7,30.12,SSW,209,3.0,7.0,38,0.00,,,0.00,Wunderground v.1.15,2013-01-23 00:00:00,
2013-01-22 19:10:00,19.0,-3.0,30.13,SW,217,5.0,5.0,37,0.00,,,0.00,Wunderground v.1.15,2013-01-23 00:10:00,
2013-01-22 19:20:00,18.8,-4.4,30.13,SSW,200,4.0,4.0,35,0.00,,,0.00,Wunderground v.1.15,2013-01-23 00:20:00,
2013-01-22 19:30:00,19.4,-1.0,30.14,South,180,4.0,23.0,40,0.00,,,-99.99,WeatherLink 6.0.2,2013-01-23 00:30:00,
2013-01-22 19:40:00,19.1,-3.0,30.14,South,172,5.0,5.0,37,0.00,,,0.00,Wunderground v.1.15,2013-01-23 00:40:00,
2013-01-22 19:50:00,18.7,-2.2,30.14,SSW,206,5.0,14.0,39,0.00,,,0.00,Wunderground v.1.15,2013-01-23 00:50:00,
2013-01-22 20:00:00,19.1,-1.3,30.15,South,180,5.0,19.0,40,0.00,,,-99.99,WeatherLink 6.0.2,2013-01-23 01:00:00,
2013-01-22 20:10:00,18.8,-1.6,30.15,SSW,198,8.0,8.0,40,0.00,,,0.00,Wunderground v.1.15,2013-01-23 01:10:00,
2013-01-22 20:20:00,18.6,-1.8,30.15,South,174,8.0,8.0,40,0.00,,,0.00,Wunderground v.1.15,2013-01-23 01:20:00,
2013-01-22 20:30:00,18.1,-1.7,30.16,SSE,167,4.0,4.0,41,0.00,,,0.00,Wunderground v.1.15,2013-01-23 01:30:00,
2013-01-22 20:40:00,18.2,-0.1,30.16,SSW,198,5.0,10.0,44,0.00,,,0.00,Wunderground v.1.15,2013-01-23 01:40:00,
2013-01-22 20:50:00,18.6,-0.7,30.16,SSW,210,5.0,5.0,42,0.00,,,0.00,Wunderground v.1.15,2013-01-23 01:50:00,
2013-01-22 21:00:00,19.0,0.6,30.17,SSW,209,5.0,5.0,44,0.00,,,0.00,Wunderground v.1.15,2013-01-23 02:00:00,
2013-01-22 21:10:00,18.6,0.7,30.17,South,174,3.0,4.0,45,0.00,,,0.00,Wunderground v.1.15,2013-01-23 02:10:00,
2013-01-22 21:20:00,17.1,-0.6,30.17,ENE,59,3.0,3.0,45,0.00,,,0.00,Wunderground v.1.15,2013-01-23 02:20:00,
2013-01-22 21:30:00,16.9,0.1,30.17,South,186,5.0,9.0,47,0.00,,,0.00,Wunderground v.1.15,2013-01-23 02:30:00,
2013-01-22 21:40:00,16.8,-0.4,30.18,South,174,5.0,10.0,46,0.00,,,0.00,Wunderground v.1.15,2013-01-23 02:40:00,
2013-01-22 21:50:00,16.8,-0.9,30.18,South,190,6.0,6.0,45,0.00,,,0.00,Wunderground v.1.15,2013-01-23 02:50:00,
2013-01-22 22:00:00,16.2,-2.9,30.19,SSW,194,4.0,4.0,42,0.00,,,0.00,Wunderground v.1.15,2013-01-23 03:00:00,
2013-01-22 22:10:00,16.7,-3.5,30.19,SW,225,6.0,9.0,40,0.00,,,0.00,Wunderground v.1.15,2013-01-23 03:10:00,
2013-01-22 22:20:00,18.3,-4.8,30.19,South,180,7.0,8.0,35,0.00,,,0.00,Wunderground v.1.15,2013-01-23 03:20:00,
2013-01-22 22:30:00,16.1,-6.2,30.19,SSW,194,5.0,5.0,36,0.00,,,0.00,Wunderground v.1.15,2013-01-23 03:30:00,
2013-01-22 22:40:00,15.7,-5.5,30.19,SW,214,4.0,4.0,38,0.00,,,0.00,Wunderground v.1.15,2013-01-23 03:40:00,
2013-01-22 22:50:00,16.4,-5.4,30.19,South,179,5.0,13.0,37,0.00,,,0.00,Wunderground v.1.15,2013-01-23 03:50:00,
2013-01-22 23:00:00,15.5,-5.1,30.20,WSW,257,7.0,7.0,39,0.00,,,0.00,Wunderground v.1.15,2013-01-23 04:00:00,
2013-01-22 23:10:00,15.5,-5.1,30.19,SSW,203,4.0,4.0,39,0.00,,,0.00,Wunderground v.1.15,2013-01-23 04:10:00,
2013-01-22 23:20:00,16.4,-5.4,30.19,South,180,6.0,6.0,37,0.00,,,0.00,Wunderground v.1.15,2013-01-23 04:20:00,
2013-01-22 23:30:00,15.3,-5.3,30.19,SW,235,4.0,4.0,39,0.00,,,0.00,Wunderground v.1.15,2013-01-23 04:30:00,
2013-01-22 23:40:00,15.1,-4.4,30.19,WSW,240,4.0,9.0,41,0.00,,,0.00,Wunderground v.1.15,2013-01-23 04:40:00,
2013-01-22 23:50:00,15.5,-4.6,30.18,South,180,3.0,5.0,40,0.00,,,0.00,Wunderground v.1.15,2013-01-23 04:50:00,